Time,TemperatureF,DewpointF,PressureIn,WindDirection,WindDirectionDegrees,WindSpeedMPH,WindSpeedGustMPH,Humidity,HourlyPrecipIn,Conditions,Clouds,dailyrainin,SoftwareType,DateUTC
2013-01-11 00:04:00,20.0,16.0,30.58,SW,232,0.0,-999.0,86,-99.99,,,-99.99,,2013-01-11 05:04:00,
2013-01-11 00:13:00,20.0,16.0,30.58,SW,232,0.0,-999.0,86,-99.99,,,-99.99,,2013-01-11 05:13:00,
2013-01-11 00:23:00,20.0,16.0,30.57,SW,232,0.0,-999.0,86,-99.99,,,-99.99,,2013-01-11 05:23:00,
2013-01-11 00:33:00,20.0,16.0,30.57,SW,232,0.0,-999.0,86,-99.99,,,-99.99,,2013-01-11 05:33:00,
2013-01-11 00:43:00,20.0,16.0,30.57,SW,232,0.0,-999.0,86,-99.99,,,-99.99,,2013-01-11 05:43:00,
2013-01-11 00:52:00,22.0,18.0,30.57,South,169,0.0,-999.0,86,-99.99,,,-99.99,,2013-01-11 05:52:00,
2013-01-11 01:03:00,21.0,17.0,30.57,South,169,0.0,-999.0,85,-99.99,,,-99.99,,2013-01-11 06:03:00,
2013-01-11 01:12:00,21.0,17.0,30.57,South,169,0.0,-999.0,85,-99.99,,,-99.99,,2013-01-11 06:12:00,
2013-01-11 01:22:00,21.0,17.0,30.57,South,169,0.0,-999.0,85,-99.99,,,-99.99,,2013-01-11 06:22:00,
2013-01-11 01:32:00,20.0,16.0,30.57,South,169,0.0,-999.0,85,-99.99,,,-99.99,,2013-01-11 06:32:00,
2013-01-11 01:42:00,20.0,16.0,30.57,South,169,0.0,-999.0,85,-99.99,,,-99.99,,2013-01-11 06:42:00,
2013-01-11 01:52:00,20.0,16.0,30.56,South,169,0.0,-999.0,86,-99.99,,,-99.99,,2013-01-11 06:52:00,
2013-01-11 02:02:00,20.0,16.0,30.56,East,89,0.0,-999.0,86,-99.99,,,-99.99,,2013-01-11 07:02:00,
2013-01-11 02:12:00,20.0,16.0,30.56,East,89,0.0,-999.0,86,-99.99,,,-99.99,,2013-01-11 07:12:00,
2013-01-11 02:22:00,20.0,17.0,30.54,SE,124,0.0,-999.0,87,-99.99,,,-99.99,,2013-01-11 07:22:00,
2013-01-11 02:32:00,22.0,19.0,30.55,NNE,30,1.0,-999.0,88,-99.99,,,-99.99,,2013-01-11 07:32:00,
2013-01-11 02:42:00,22.0,19.0,30.52,NE,46,1.0,-999.0,88,-99.99,,,-99.99,,2013-01-11 07:42:00,
2013-01-11 02:52:00,22.0,19.0,30.52,NE,46,1.0,-999.0,88,-99.99,,,-99.99,,2013-01-11 07:52:00,
2013-01-11 03:02:00,25.0,21.0,30.52,NW,304,4.0,-999.0,84,-99.99,,,-99.99,,2013-01-11 08:02:00,
2013-01-11 03:12:00,26.0,21.0,30.53,West,269,2.0,-999.0,82,-99.99,,,-99.99,,2013-01-11 08:12:00,
2013-01-11 03:22:00,26.0,21.0,30.53,West,269,2.0,-999.0,82,-99.99,,,-99.99,,2013-01-11 08:22:00,
2013-01-11 03:32:00,25.0,20.0,30.51,SSW,204,1.0,-999.0,81,-99.99,,,-99.99,,2013-01-11 08:32:00,
2013-01-11 03:42:00,25.0,20.0,30.51,SSW,204,1.0,-999.0,81,-99.99,,,-99.99,,2013-01-11 08:42:00,
2013-01-11 03:52:00,24.0,19.0,30.51,SSW,204,0.0,-999.0,81,-99.99,,,-99.99,,2013-01-11 08:52:00,
2013-01-11 04:02:00,23.0,18.0,30.49,SSW,204,0.0,-999.0,82,-99.99,,,-99.99,,2013-01-11 09:02:00,
2013-01-11 04:12:00,23.0,18.0,30.49,SSW,204,0.0,-999.0,82,-99.99,,,-99.99,,2013-01-11 09:12:00,
2013-01-11 04:23:00,23.0,18.0,30.50,SSW,204,0.0,-999.0,82,-99.99,,,-99.99,,2013-01-11 09:23:00,
2013-01-11 04:32:00,22.0,18.0,30.49,SSW,204,0.0,-999.0,83,-99.99,,,-99.99,,2013-01-11 09:32:00,
2013-01-11 04:42:00,22.0,18.0,30.49,SSW,204,0.0,-999.0,83,-99.99,,,-99.99,,2013-01-11 09:42:00,
2013-01-11 04:52:00,21.0,17.0,30.48,SSW,204,1.0,-999.0,84,-99.99,,,-99.99,,2013-01-11 09:52:00,
2013-01-11 05:02:00,21.0,17.0,30.47,SSW,204,0.0,-999.0,85,-99.99,,,-99.99,,2013-01-11 10:02:00,
2013-01-11 05:12:00,21.0,17.0,30.47,SSW,204,0.0,-999.0,85,-99.99,,,-99.99,,2013-01-11 10:12:00,
2013-01-11 05:22:00,21.0,17.0,30.47,SSW,204,0.0,-999.0,85,-99.99,,,-99.99,,2013-01-11 10:22:00,
2013-01-11 05:32:00,21.0,17.0,30.46,SSW,204,0.0,-999.0,86,-99.99,,,-99.99,,2013-01-11 10:32:00,
2013-01-11 05:42:00,21.0,17.0,30.46,SSW,204,0.0,-999.0,86,-99.99,,,-99.99,,2013-01-11 10:42:00,
2013-01-11 05:53:00,21.0,17.0,30.46,SSW,204,0.0,-999.0,86,-99.99,,,-99.99,,2013-01-11 10:53:00,
2013-01-11 06:03:00,21.0,17.0,30.47,SSW,204,0.0,-999.0,86,-99.99,,,-99.99,,2013-01-11 11:03:00,
2013-01-11 06:12:00,21.0,17.0,30.47,SSW,204,0.0,-999.0,86,-99.99,,,-99.99,,2013-01-11 11:12:00,
2013-01-11 06:22:00,21.0,18.0,30.46,SSW,205,0.0,-999.0,87,-99.99,,,-99.99,,2013-01-11 11:22:00,
2013-01-11 06:33:00,21.0,18.0,30.46,ENE,67,1.0,-999.0,87,-99.99,,,-99.99,,2013-01-11 11:33:00,
2013-01-11 06:43:00,21.0,18.0,30.46,ENE,67,1.0,-999.0,87,-99.99,,,-99.99,,2013-01-11 11:43:00,
2013-01-11 06:53:00,22.0,19.0,30.45,NE,47,1.0,-999.0,87,-99.99,,,-99.99,,2013-01-11 11:53:00,
2013-01-11 07:03:00,22.0,19.0,30.46,NE,44,1.0,-999.0,87,-99.99,,,-99.99,,2013-01-11 12:03:00,
2013-01-11 07:12:00,22.0,19.0,30.46,NE,44,1.0,-999.0,87,-99.99,,,-99.99,,2013-01-11 12:12:00,
2013-01-11 07:22:00,23.0,19.0,30.46,NE,45,0.0,-999.0,86,-99.99,,,-99.99,,2013-01-11 12:22:00,
2013-01-11 07:33:00,23.0,21.0,30.46,NNE,29,1.0,-999.0,92,-99.99,,,-99.99,,2013-01-11 12:33:00,
2013-01-11 07:43:00,23.0,21.0,30.46,NNE,29,1.0,-999.0,92,-99.99,,,-99.99,,2013-01-11 12:43:00,
2013-01-11 07:52:00,24.0,20.0,30.45,NNE,29,1.0,-999.0,84,-99.99,,,-99.99,,2013-01-11 12:52:00,
2013-01-11 08:03:00,25.0,20.0,30.45,ENE,67,1.0,-999.0,82,-99.99,,,-99.99,,2013-01-11 13:03:00,
2013-01-11 08:13:00,25.0,20.0,30.45,ENE,67,1.0,-999.0,82,-99.99,,,-99.99,,2013-01-11 13:13:00,
2013-01-11 08:22:00,30.0,15.0,30.44,SE,141,6.0,-999.0,53,-99.99,,,-99.99,,2013-01-11 13:22:00,
2013-01-11 08:33:00,38.0,11.0,30.43,West,269,5.0,-999.0,33,-99.99,,,-99.99,,2013-01-11 13:33:00,
2013-01-11 08:43:00,38.0,11.0,30.43,West,269,5.0,-999.0,33,-99.99,,,-99.99,,2013-01-11 13:43:00,
2013-01-11 08:52:00,40.0,11.0,30.42,SSW,202,5.0,-999.0,30,-99.99,,,-99.99,,2013-01-11 13:52:00,
2013-01-11 09:03:00,40.0,11.0,30.42,SSW,202,5.0,-999.0,30,-99.99,,,-99.99,,2013-01-11 14:03:00,
2013-01-11 09:12:00,40.0,11.0,30.42,SSW,202,5.0,-999.0,30,-99.99,,,-99.99,,2013-01-11 14:12:00,
2013-01-11 09:23:00,40.0,12.0,30.41,West,268,7.0,-999.0,31,-99.99,,,-99.99,,2013-01-11 14:23:00,
2013-01-11 09:33:00,40.0,14.0,30.41,SSW,193,5.0,-999.0,34,-99.99,,,-99.99,,2013-01-11 14:33:00,
2013-01-11 09:43:00,40.0,14.0,30.41,SSW,193,5.0,-999.0,34,-99.99,,,-99.99,,2013-01-11 14:43:00,
2013-01-11 09:53:00,40.0,15.0,30.42,South,190,6.0,-999.0,35,-99.99,,,-99.99,,2013-01-11 14:53:00,
2013-01-11 10:03:00,40.0,16.0,30.42,SSW,203,8.0,-999.0,37,-99.99,,,-99.99,,2013-01-11 15:03:00,
2013-01-11 10:13:00,40.0,16.0,30.41,SE,132,9.0,-999.0,37,-99.99,,,-99.99,,2013-01-11 15:13:00,
2013-01-11 10:23:00,40.0,16.0,30.41,SE,132,9.0,-999.0,37,-99.99,,,-99.99,,2013-01-11 15:23:00,
2013-01-11 10:33:00,40.0,16.0,30.40,ESE,107,5.0,-999.0,38,-99.99,,,-99.99,,2013-01-11 15:33:00,
2013-01-11 10:43:00,40.0,16.0,30.40,ESE,107,5.0,-999.0,38,-99.99,,,-99.99,,2013-01-11 15:43:00,
2013-01-11 10:52:00,40.0,16.0,30.40,ESE,115,7.0,-999.0,38,-99.99,,,-99.99,,2013-01-11 15:52:00,
2013-01-11 11:03:00,40.0,16.0,30.40,ESE,115,7.0,-999.0,38,-99.99,,,-99.99,,2013-01-11 16:03:00,
2013-01-11 11:12:00,39.0,17.0,30.37,South,174,6.0,-999.0,41,-99.99,,,-99.99,,2013-01-11 16:12:00,
2013-01-11 11:23:00,39.0,17.0,30.37,South,174,6.0,-999.0,41,-99.99,,,-99.99,,2013-01-11 16:23:00,
2013-01-11 11:33:00,40.0,17.0,30.35,NW,317,3.0,-999.0,39,-99.99,,,-99.99,,2013-01-11 16:33:00,
2013-01-11 11:43:00,40.0,17.0,30.35,NW,317,3.0,-999.0,39,-99.99,,,-99.99,,2013-01-11 16:43:00,
2013-01-11 11:53:00,40.0,18.0,30.35,South,184,7.0,-999.0,41,-99.99,,,-99.99,,2013-01-11 16:53:00,
2013-01-11 12:03:00,39.0,18.0,30.35,SSW,200,7.0,-999.0,42,-99.99,,,-99.99,,2013-01-11 17:03:00,
2013-01-11 12:12:00,39.0,18.0,30.35,SSW,200,7.0,-999.0,42,-99.99,,,-99.99,,2013-01-11 17:12:00,
2013-01-11 12:22:00,39.0,18.0,30.32,WSW,238,8.0,-999.0,42,-99.99,,,-99.99,,2013-01-11 17:22:00,
2013-01-11 12:33:00,39.0,18.0,30.32,SE,130,7.0,-999.0,43,-99.99,,,-99.99,,2013-01-11 17:33:00,
2013-01-11 12:43:00,39.0,18.0,30.32,SE,130,7.0,-999.0,43,-99.99,,,-99.99,,2013-01-11 17:43:00,
2013-01-11 12:53:00,39.0,18.0,30.30,SW,228,8.0,-999.0,43,-99.99,,,-99.99,,2013-01-11 17:53:00,
2013-01-11 13:04:00,40.0,19.0,30.28,SSW,196,7.0,-999.0,43,-99.99,,,-99.99,,2013-01-11 18:04:00,
2013-01-11 13:13:00,40.0,19.0,30.28,SSW,196,7.0,-999.0,43,-99.99,,,-99.99,,2013-01-11 18:13:00,
2013-01-11 13:23:00,40.0,19.0,30.27,South,177,5.0,-999.0,42,-99.99,,,-99.99,,2013-01-11 18:23:00,
2013-01-11 13:33:00,41.0,19.0,30.27,South,171,8.0,-999.0,40,-99.99,,,-99.99,,2013-01-11 18:33:00,
2013-01-11 13:43:00,41.0,19.0,30.27,South,171,8.0,-999.0,40,-99.99,,,-99.99,,2013-01-11 18:43:00,
2013-01-11 13:53:00,41.0,19.0,30.27,SW,217,9.0,-999.0,41,-99.99,,,-99.99,,2013-01-11 18:53:00,
2013-01-11 14:03:00,41.0,21.0,30.27,SSW,192,9.0,-999.0,44,-99.99,,,-99.99,,2013-01-11 19:03:00,
2013-01-11 14:12:00,41.0,21.0,30.27,SSW,192,9.0,-999.0,44,-99.99,,,-99.99,,2013-01-11 19:12:00,
2013-01-11 14:22:00,40.0,21.0,30.26,SSE,148,10.0,-999.0,46,-99.99,,,-99.99,,2013-01-11 19:22:00,
2013-01-11 14:33:00,39.0,23.0,30.27,SSW,202,13.0,-999.0,52,-99.99,,,-99.99,,2013-01-11 19:33:00,
2013-01-11 14:43:00,39.0,23.0,30.27,SSW,202,13.0,-999.0,52,-99.99,,,-99.99,,2013-01-11 19:43:00,
2013-01-11 14:53:00,38.0,26.0,30.26,South,186,9.0,-999.0,61,-99.99,,,-99.99,,2013-01-11 19:53:00,
2013-01-11 15:03:00,38.0,29.0,30.26,SSE,158,5.0,-999.0,69,-99.99,,,-99.99,,2013-01-11 20:03:00,
2013-01-11 15:12:00,38.0,29.0,30.26,SSE,158,5.0,-999.0,69,-99.99,,,-99.99,,2013-01-11 20:12:00,
2013-01-11 15:22:00,38.0,29.0,30.24,ESE,121,5.0,-999.0,70,-99.99,,,-99.99,,2013-01-11 20:22:00,
2013-01-11 15:33:00,38.0,28.0,30.24,South,175,6.0,-999.0,68,-99.99,,,-99.99,,2013-01-11 20:33:00,
2013-01-11 15:43:00,38.0,28.0,30.24,South,175,6.0,-999.0,68,-99.99,,,-99.99,,2013-01-11 20:43:00,
2013-01-11 15:52:00,39.0,28.0,30.23,South,186,9.0,-999.0,65,-99.99,,,-99.99,,2013-01-11 20:52:00,
2013-01-11 16:03:00,39.0,27.0,30.23,SSE,167,9.0,-999.0,63,-99.99,,,-99.99,,2013-01-11 21:03:00,
2013-01-11 16:12:00,39.0,27.0,30.23,SSE,167,9.0,-999.0,63,-99.99,,,-99.99,,2013-01-11 21:12:00,
2013-01-11 16:23:00,39.0,26.0,30.22,South,187,8.0,-999.0,59,-99.99,,,-99.99,,2013-01-11 21:23:00,
2013-01-11 16:33:00,39.0,26.0,30.22,SSW,201,10.0,-999.0,59,-99.99,,,-99.99,,2013-01-11 21:33:00,
2013-01-11 16:42:00,39.0,26.0,30.22,SSW,201,10.0,-999.0,59,-99.99,,,-99.99,,2013-01-11 21:42:00,
2013-01-11 16:52:00,39.0,26.0,30.22,SSW,201,10.0,-999.0,59,-99.99,,,-99.99,,2013-01-11 21:52:00,
2013-01-11 17:03:00,39.0,28.0,30.22,SE,133,11.0,-999.0,65,-99.99,,,-99.99,,2013-01-11 22:03:00,
2013-01-11 17:12:00,39.0,28.0,30.22,SE,133,11.0,-999.0,65,-99.99,,,-99.99,,2013-01-11 22:12:00,
2013-01-11 17:23:00,38.0,31.0,30.22,SW,218,13.0,-999.0,76,-99.99,,,-99.99,,2013-01-11 22:23:00,
2013-01-11 17:33:00,38.0,32.0,30.21,WSW,244,9.0,-999.0,79,-99.99,,,-99.99,,2013-01-11 22:33:00,
2013-01-11 17:42:00,38.0,32.0,30.21,WSW,244,9.0,-999.0,79,-99.99,,,-99.99,,2013-01-11 22:42:00,
2013-01-11 17:52:00,38.0,33.0,30.20,SSW,212,8.0,-999.0,82,-99.99,,,-99.99,,2013-01-11 22:52:00,
2013-01-11 18:02:00,38.0,33.0,30.19,SSW,192,7.0,-999.0,83,-99.99,,,-99.99,,2013-01-11 23:02:00,
2013-01-11 18:13:00,38.0,33.0,30.19,SSW,192,7.0,-999.0,83,-99.99,,,-99.99,,2013-01-11 23:13:00,
2013-01-11 18:23:00,38.0,34.0,30.19,South,182,8.0,-999.0,84,-99.99,,,-99.99,,2013-01-11 23:23:00,
2013-01-11 18:33:00,38.0,34.0,30.19,SW,217,8.0,-999.0,85,-99.99,,,-99.99,,2013-01-11 23:33:00,
2013-01-11 18:43:00,38.0,34.0,30.19,SW,217,8.0,-999.0,85,-99.99,,,-99.99,,2013-01-11 23:43:00,
2013-01-11 18:53:00,38.0,34.0,30.18,SE,132,7.0,-999.0,85,-99.99,,,-99.99,,2013-01-11 23:53:00,
2013-01-11 19:03:00,38.0,34.0,30.19,South,189,7.0,-999.0,85,-99.99,,,-99.99,,2013-01-12 00:03:00,
2013-01-11 19:12:00,38.0,34.0,30.19,SSW,194,3.0,-999.0,85,-99.99,,,-99.99,,2013-01-12 00:12:00,
2013-01-11 19:23:00,38.0,34.0,30.19,SSW,194,3.0,-999.0,85,-99.99,,,-99.99,,2013-01-12 00:23:00,
2013-01-11 19:33:00,39.0,35.0,30.17,South,178,6.0,-999.0,86,-99.99,,,-99.99,,2013-01-12 00:33:00,
2013-01-11 19:43:00,39.0,35.0,30.17,South,178,6.0,-999.0,86,-99.99,,,-99.99,,2013-01-12 00:43:00,
2013-01-11 19:52:00,39.0,35.0,30.14,South,172,9.0,-999.0,85,-99.99,,,-99.99,,2013-01-12 00:52:00,
2013-01-11 20:03:00,40.0,36.0,30.11,SW,229,6.0,-999.0,85,-99.99,,,-99.99,,2013-01-12 01:03:00,
2013-01-11 20:12:00,40.0,36.0,30.11,SW,229,6.0,-999.0,85,-99.99,,,-99.99,,2013-01-12 01:12:00,
2013-01-11 20:22:00,41.0,36.0,30.13,SSW,198,9.0,-999.0,83,-99.99,,,-99.99,,2013-01-12 01:22:00,
2013-01-11 20:33:00,41.0,36.0,30.14,SW,219,8.0,-999.0,82,-99.99,,,-99.99,,2013-01-12 01:33:00,
2013-01-11 20:43:00,41.0,36.0,30.14,SW,219,8.0,-999.0,82,-99.99,,,-99.99,,2013-01-12 01:43:00,
2013-01-11 20:52:00,41.0,36.0,30.15,SE,142,6.0,-999.0,83,-99.99,,,-99.99,,2013-01-12 01:52:00,
2013-01-11 21:02:00,40.0,36.0,30.15,SSE,165,5.0,-999.0,84,-99.99,,,-99.99,,2013-01-12 02:02:00,
2013-01-11 21:12:00,40.0,36.0,30.15,SSE,165,5.0,-999.0,84,-99.99,,,-99.99,,2013-01-12 02:12:00,
2013-01-11 21:22:00,40.0,36.0,30.15,South,184,4.0,-999.0,84,-99.99,,,-99.99,,2013-01-12 02:22:00,
2013-01-11 21:33:00,40.0,36.0,30.16,SSE,165,4.0,-999.0,85,-99.99,,,-99.99,,2013-01-12 02:33:00,
2013-01-11 21:43:00,40.0,36.0,30.16,SSE,165,4.0,-999.0,85,-99.99,,,-99.99,,2013-01-12 02:43:00,
2013-01-11 21:53:00,40.0,36.0,30.16,SSW,204,4.0,-999.0,85,-99.99,,,-99.99,,2013-01-12 02:53:00,
2013-01-11 22:03:00,39.0,35.0,30.17,SSW,209,4.0,-999.0,85,-99.99,,,-99.99,,2013-01-12 03:03:00,
2013-01-11 22:12:00,39.0,35.0,30.17,SSW,209,4.0,-999.0,85,-99.99,,,-99.99,,2013-01-12 03:12:00,
2013-01-11 22:22:00,39.0,35.0,30.16,SW,221,4.0,-999.0,86,-99.99,,,-99.99,,2013-01-12 03:22:00,
2013-01-11 22:33:00,39.0,35.0,30.16,WSW,238,4.0,-999.0,87,-99.99,,,-99.99,,2013-01-12 03:33:00,
2013-01-11 22:43:00,39.0,35.0,30.16,WSW,238,4.0,-999.0,87,-99.99,,,-99.99,,2013-01-12 03:43:00,
2013-01-11 22:52:00,39.0,35.0,30.16,WSW,246,4.0,-999.0,87,-99.99,,,-99.99,,2013-01-12 03:52:00,
2013-01-11 23:02:00,39.0,35.0,30.16,WSW,244,4.0,-999.0,87,-99.99,,,-99.99,,2013-01-12 04:02:00,
2013-01-11 23:12:00,39.0,35.0,30.16,WSW,244,4.0,-999.0,87,-99.99,,,-99.99,,2013-01-12 04:12:00,
2013-01-11 23:22:00,39.0,36.0,30.16,SSW,210,4.0,-999.0,88,-99.99,,,-99.99,,2013-01-12 04:22:00,
2013-01-11 23:32:00,39.0,36.0,30.16,SSW,209,3.0,-999.0,88,-99.99,,,-99.99,,2013-01-12 04:32:00,
2013-01-11 23:42:00,39.0,36.0,30.16,SSW,209,3.0,-999.0,88,-99.99,,,-99.99,,2013-01-12 04:42:00,
2013-01-11 23:52:00,39.0,36.0,30.15,South,184,2.0,-999.0,89,-99.99,,,-99.99,,2013-01-12 04:52:00,